Time;durP1;ratioP1;P1;durP2;ratioP2;P2;SDS_P1;SDS_P2;PMS_P1;PMS_P2;Temp;Humidity;BMP_temperature;BMP_pressure;BME280_temperature;BME280_humidity;BME280_pressure;Samples;Min_cycle;Max_cycle;Signal;HPM_P1;HPM_P2
2022/03/29 00:01:13;;;;;;;22.60;8.27;;;;;;;5.14;87.88;100983.53;5953506;29;20290;-72
2022/03/29 00:04:08;;;;;;;20.97;8.80;;;;;;;5.17;87.53;100993.00;5959610;29;20039;-70
2022/03/29 00:07:03;;;;;;;25.47;9.03;;;;;;;5.22;86.95;100983.84;5975408;29;20038;-72
2022/03/29 00:10:01;;;;;;;21.30;8.67;;;;;;;5.31;87.52;100979.75;5962331;29;20034;-71
2022/03/29 00:12:57;;;;;;;18.45;8.13;;;;;;;5.34;87.06;100969.03;5952198;29;20291;-70
2022/03/29 00:15:52;;;;;;;19.07;8.40;;;;;;;5.33;87.83;100972.59;5953674;29;20041;-71
2022/03/29 00:18:47;;;;;;;23.57;9.20;;;;;;;5.37;86.99;100967.03;5961281;29;20058;-70
2022/03/29 00:21:42;;;;;;;23.00;9.13;;;;;;;5.38;86.90;100962.63;5958874;29;20094;-70
2022/03/29 00:24:38;;;;;;;23.97;9.20;;;;;;;5.47;87.39;100972.47;5947296;29;20047;-72
2022/03/29 00:27:36;;;;;;;22.88;9.60;;;;;;;5.43;86.95;100955.25;5960773;29;20050;-71
2022/03/29 00:30:31;;;;;;;26.55;11.30;;;;;;;5.45;86.59;100955.97;5966301;29;20442;-69
2022/03/29 00:33:27;;;;;;;23.47;9.60;;;;;;;5.35;87.46;100954.94;5979431;29;20039;-71
2022/03/29 00:36:23;;;;;;;25.35;9.43;;;;;;;5.38;86.31;100957.38;5967392;29;20039;-71
2022/03/29 00:39:18;;;;;;;30.27;9.87;;;;;;;5.37;87.04;100947.78;5958102;29;20036;-71
2022/03/29 00:42:13;;;;;;;25.23;9.07;;;;;;;5.36;87.05;100952.19;5935713;29;20043;-71
2022/03/29 00:45:09;;;;;;;23.27;9.87;;;;;;;5.38;86.79;100954.75;5955725;29;20036;-71
2022/03/29 00:48:07;;;;;;;28.65;11.15;;;;;;;5.37;86.68;100947.78;5949999;29;20040;-71
2022/03/29 00:51:02;;;;;;;24.38;9.88;;;;;;;5.35;87.66;100944.44;5978338;29;20383;-71
2022/03/29 00:53:58;;;;;;;29.95;10.48;;;;;;;5.41;87.63;100946.59;5942130;29;20055;-72
2022/03/29 00:56:53;;;;;;;25.03;10.20;;;;;;;5.43;87.37;100948.19;5953720;29;20039;-71
2022/03/29 00:59:49;;;;;;;31.70;11.33;;;;;;;5.41;87.26;100938.72;5938464;29;20268;-69
2022/03/29 01:02:44;;;;;;;29.38;11.73;;;;;;;5.47;87.63;100935.66;5961083;29;20071;-70
2022/03/29 01:05:40;;;;;;;28.17;10.70;;;;;;;5.39;87.46;100933.59;5973265;29;20047;-69
2022/03/29 01:08:35;;;;;;;30.10;11.23;;;;;;;5.37;86.97;100926.75;5955855;29;20039;-71
2022/03/29 01:11:32;;;;;;;32.05;10.82;;;;;;;5.37;87.39;100921.50;5961156;28;20071;-72
2022/03/29 01:14:28;;;;;;;29.88;11.00;;;;;;;5.38;87.60;100912.66;5952295;29;20031;-71
2022/03/29 01:17:40;;;;;;;31.13;11.05;;;;;;;5.37;87.51;100905.72;5982971;29;20035;-70
2022/03/29 01:20:35;;;;;;;28.63;11.27;;;;;;;5.37;87.39;100921.50;5952328;29;20503;-71
2022/03/29 01:23:31;;;;;;;30.08;11.40;;;;;;;5.39;87.19;100914.34;5954011;29;20047;-71
2022/03/29 01:26:26;;;;;;;32.07;11.53;;;;;;;5.37;87.60;100916.22;5959532;29;20040;-69
2022/03/29 01:29:21;;;;;;;30.58;11.38;;;;;;;5.38;87.30;100915.31;5954234;29;20046;-71
2022/03/29 01:32:17;;;;;;;30.30;11.73;;;;;;;5.35;87.27;100916.31;5952249;29;20051;-70
2022/03/29 01:35:16;;;;;;;28.10;11.50;;;;;;;5.33;87.37;100914.75;5954638;29;20043;-69
2022/03/29 01:38:11;;;;;;;32.42;11.52;;;;;;;5.30;86.43;100912.34;5958804;29;20054;-69
2022/03/29 01:41:07;;;;;;;29.53;10.80;;;;;;;5.37;86.70;100905.72;5962840;29;20539;-71
2022/03/29 01:44:02;;;;;;;31.67;10.65;;;;;;;5.37;87.19;100905.72;5971117;29;20379;-70
2022/03/29 01:46:57;;;;;;;31.45;11.82;;;;;;;5.39;86.60;100911.69;5959027;29;20027;-71
2022/03/29 01:49:53;;;;;;;30.13;12.20;;;;;;;5.36;86.84;100904.88;5957392;29;20529;-70
2022/03/29 01:52:49;;;;;;;24.93;9.67;;;;;;;5.27;86.18;100900.25;5964660;29;20130;-71
2022/03/29 01:55:45;;;;;;;28.33;10.90;;;;;;;5.31;86.11;100906.16;5959963;29;20031;-71
2022/03/29 01:58:40;;;;;;;32.28;11.85;;;;;;;5.32;85.75;100908.69;5955001;29;20032;-71
2022/03/29 02:01:46;;;;;;;31.93;12.80;;;;;;;5.25;86.29;100909.19;5972021;29;20046;-71
2022/03/29 02:04:42;;;;;;;34.53;12.38;;;;;;;5.19;86.63;100899.94;5969142;29;20031;-70
2022/03/29 02:07:37;;;;;;;32.47;13.60;;;;;;;5.19;86.88;100904.38;5958909;29;20056;-70
2022/03/29 02:10:33;;;;;;;34.77;13.53;;;;;;;5.13;86.07;100910.06;5950431;29;20099;-70
2022/03/29 02:13:28;;;;;;;34.58;13.95;;;;;;;5.16;86.25;100909.84;5957611;29;20106;-70
2022/03/29 02:16:23;;;;;;;32.87;12.70;;;;;;;5.05;86.76;100904.50;5958708;29;20387;-71
2022/03/29 02:19:19;;;;;;;36.00;12.93;;;;;;;4.99;86.30;100904.91;5966577;29;20328;-71
2022/03/29 02:22:14;;;;;;;33.77;12.30;;;;;;;5.11;86.84;100909.34;5949835;29;20039;-70
2022/03/29 02:25:13;;;;;;;31.47;12.00;;;;;;;5.15;86.85;100911.63;5981340;29;20046;-70
2022/03/29 02:28:08;;;;;;;31.60;12.77;;;;;;;5.15;85.62;100905.53;5968811;29;20038;-70
2022/03/29 02:31:04;;;;;;;34.05;13.73;;;;;;;5.16;86.08;100904.59;5969907;29;20112;-70
2022/03/29 02:33:59;;;;;;;34.35;12.60;;;;;;;5.13;86.12;100896.94;5968039;29;20051;-71
2022/03/29 02:36:55;;;;;;;31.83;12.50;;;;;;;5.13;86.68;100894.28;5957258;29;20043;-69
2022/03/29 02:39:51;;;;;;;34.80;13.25;;;;;;;5.12;86.51;100893.44;5955810;29;20395;-70
2022/03/29 02:42:51;;;;;;;34.35;12.63;;;;;;;5.11;86.01;100888.31;5953387;29;20042;-71
2022/03/29 02:45:46;;;;;;;32.75;12.00;;;;;;;5.13;85.48;100887.25;5957808;29;20118;-70
2022/03/29 02:48:42;;;;;;;31.97;12.40;;;;;;;5.14;85.05;100888.06;5957841;29;20031;-70
2022/03/29 02:51:37;;;;;;;32.03;11.93;;;;;;;5.17;84.90;100882.59;5957171;29;20291;-70
2022/03/29 02:54:32;;;;;;;31.97;12.00;;;;;;;5.14;84.90;100877.56;5943178;29;20388;-71
2022/03/29 02:57:28;;;;;;;29.37;12.00;;;;;;;5.14;84.83;100872.31;5957854;29;20031;-69
2022/03/29 03:00:23;;;;;;;29.23;10.97;;;;;;;5.19;84.29;100878.09;5945749;29;20035;-71
2022/03/29 03:03:19;;;;;;;32.53;11.23;;;;;;;5.21;84.31;100869.16;5963787;29;20431;-71
2022/03/29 03:06:14;;;;;;;33.17;12.32;;;;;;;5.24;84.59;100878.63;5980738;29;20045;-71
2022/03/29 03:09:09;;;;;;;34.53;11.07;;;;;;;5.25;84.41;100875.88;5957190;29;20048;-69
2022/03/29 03:12:05;;;;;;;30.47;10.23;;;;;;;5.26;83.76;100876.72;5956605;29;20526;-71
2022/03/29 03:15:00;;;;;;;30.33;10.70;;;;;;;5.23;83.71;100861.16;5954358;29;20431;-70
2022/03/29 03:17:56;;;;;;;34.70;11.03;;;;;;;5.22;84.27;100875.22;5954838;29;20040;-70
2022/03/29 03:20:51;;;;;;;29.70;11.17;;;;;;;5.25;83.47;100864.50;5955868;29;20038;-70
2022/03/29 03:23:46;;;;;;;30.40;10.97;;;;;;;5.23;84.57;100872.50;5956308;29;20044;-69
2022/03/29 03:26:41;;;;;;;32.03;11.82;;;;;;;5.21;85.21;100869.16;5961645;29;20071;-71
2022/03/29 03:29:37;;;;;;;33.07;11.77;;;;;;;5.19;84.40;100876.28;5943884;29;20102;-69
2022/03/29 03:32:32;;;;;;;33.37;11.20;;;;;;;5.21;84.79;100865.69;5973316;29;20501;-70
2022/03/29 03:35:29;;;;;;;32.40;11.32;;;;;;;5.20;85.11;100856.09;5974607;28;20707;-68
2022/03/29 03:38:24;;;;;;;33.08;11.05;;;;;;;5.24;84.64;100862.84;5979774;29;20032;-69
2022/03/29 03:41:20;;;;;;;29.50;11.77;;;;;;;5.21;84.71;100868.31;5958548;29;20058;-70
2022/03/29 03:44:15;;;;;;;29.10;10.73;;;;;;;5.18;84.61;100852.75;5955886;29;20729;-71
2022/03/29 03:47:10;;;;;;;27.07;10.33;;;;;;;5.26;83.83;100860.94;5955212;29;20042;-70
2022/03/29 03:50:07;;;;;;;32.07;11.53;;;;;;;5.22;84.29;100851.56;5951532;29;20287;-71
2022/03/29 03:53:03;;;;;;;28.80;10.57;;;;;;;5.14;84.52;100843.38;5955655;29;20074;-70
2022/03/29 03:55:58;;;;;;;34.10;10.97;;;;;;;5.17;84.90;100844.03;5956666;29;20032;-70
2022/03/29 03:58:53;;;;;;;34.60;10.73;;;;;;;5.12;84.69;100842.66;5959630;29;21146;-70
2022/03/29 04:01:49;;;;;;;24.47;10.27;;;;;;;5.14;84.55;100843.38;5972928;29;20334;-71
2022/03/29 04:04:44;;;;;;;28.47;9.63;;;;;;;5.12;84.23;100837.41;5969628;29;20391;-70
2022/03/29 04:07:40;;;;;;;30.23;10.37;;;;;;;5.10;83.34;100839.31;5970125;29;20046;-70
2022/03/29 04:10:37;;;;;;;26.90;9.77;;;;;;;5.11;82.91;100831.31;5948324;29;20287;-71
2022/03/29 04:13:34;;;;;;;26.33;10.10;;;;;;;5.13;83.54;100837.31;5955869;29;20043;-71
2022/03/29 04:16:29;;;;;;;27.50;9.77;;;;;;;5.11;83.65;100828.69;5957342;29;20116;-69
2022/03/29 04:19:26;;;;;;;25.57;9.73;;;;;;;5.14;84.38;100819.75;5960658;29;20036;-71
2022/03/29 04:22:21;;;;;;;25.50;10.80;;;;;;;5.16;83.53;100817.88;5950376;29;20283;-70
2022/03/29 04:25:17;;;;;;;30.53;10.23;;;;;;;5.16;83.01;100807.34;5955795;29;20483;-71
2022/03/29 04:28:12;;;;;;;25.58;10.85;;;;;;;5.19;82.91;100809.75;5966900;29;20047;-71
2022/03/29 04:31:08;;;;;;;27.40;9.40;;;;;;;5.18;83.28;100818.59;5953085;29;20136;-71
2022/03/29 04:34:05;;;;;;;26.20;10.40;;;;;;;5.14;82.38;100809.22;5954305;29;20028;-71
2022/03/29 04:37:00;;;;;;;27.02;10.15;;;;;;;5.15;83.28;100810.91;5955960;29;20043;-70
2022/03/29 04:39:55;;;;;;;34.40;11.13;;;;;;;5.18;83.05;100814.19;5953182;29;20593;-70
2022/03/29 04:42:52;;;;;;;26.87;10.07;;;;;;;5.16;81.97;100809.97;5957248;29;20283;-71
2022/03/29 04:45:47;;;;;;;28.30;10.95;;;;;;;5.18;82.76;100805.44;5957173;29;20042;-71
2022/03/29 04:48:43;;;;;;;31.27;10.73;;;;;;;5.18;81.64;100794.94;5978931;29;20035;-70
2022/03/29 04:51:38;;;;;;;26.30;9.68;;;;;;;5.12;82.15;100796.22;5961562;29;20035;-71
2022/03/29 04:54:33;;;;;;;25.17;9.20;;;;;;;5.17;83.27;100796.72;5983602;29;20066;-68
2022/03/29 04:57:29;;;;;;;24.73;9.43;;;;;;;5.17;83.19;100804.59;5960004;29;20091;-71
2022/03/29 05:00:25;;;;;;;28.03;10.40;;;;;;;5.23;82.51;100803.31;5980809;29;20031;-71
2022/03/29 05:03:20;;;;;;;26.52;10.02;;;;;;;5.22;82.96;100797.22;5965397;29;20038;-70
2022/03/29 05:06:16;;;;;;;27.30;10.00;;;;;;;5.17;83.51;100790.59;5959500;29;20052;-69
2022/03/29 05:09:11;;;;;;;31.47;10.40;;;;;;;5.20;82.91;100793.03;5973559;29;20267;-71
2022/03/29 05:12:06;;;;;;;30.33;11.57;;;;;;;5.23;82.63;100787.56;5982218;29;20054;-71
2022/03/29 05:15:02;;;;;;;24.33;10.48;;;;;;;5.26;82.26;100796.06;5980849;29;20398;-71
2022/03/29 05:17:57;;;;;;;28.25;10.00;;;;;;;5.27;82.79;100789.03;5959689;29;20062;-72
2022/03/29 05:20:52;;;;;;;31.90;11.90;;;;;;;5.22;82.65;100793.75;5957655;29;20039;-70
2022/03/29 05:23:48;;;;;;;34.37;11.00;;;;;;;5.22;82.00;100791.13;5954054;29;20034;-70
2022/03/29 05:26:43;;;;;;;34.27;11.73;;;;;;;5.22;82.35;100788.50;5957700;29;20107;-71
2022/03/29 05:29:39;;;;;;;29.25;11.50;;;;;;;5.29;82.56;100792.38;5954464;29;20067;-70
2022/03/29 05:32:34;;;;;;;32.72;11.20;;;;;;;5.25;83.27;100790.91;5954932;29;20035;-71
2022/03/29 05:35:30;;;;;;;28.92;11.00;;;;;;;5.34;82.65;100795.50;5963991;29;20043;-71
2022/03/29 05:38:25;;;;;;;28.23;11.15;;;;;;;5.25;82.58;100789.13;5974902;29;20040;-70
2022/03/29 05:41:21;;;;;;;35.23;11.20;;;;;;;5.31;82.02;100785.22;5943028;29;20071;-71
2022/03/29 05:44:16;;;;;;;28.37;11.23;;;;;;;5.27;82.25;100781.94;5958059;29;20107;-69
2022/03/29 05:50:26;;;;;;;33.33;11.38;;;;;;;5.33;82.94;100778.03;5955855;29;20031;-70
2022/03/29 05:53:22;;;;;;;28.65;10.65;;;;;;;5.28;82.30;100777.53;5958953;29;20043;-71
2022/03/29 05:56:17;;;;;;;27.67;10.85;;;;;;;5.34;82.19;100785.84;5961766;29;20046;-69
2022/03/29 05:59:12;;;;;;;28.87;10.93;;;;;;;5.40;82.20;100785.41;5954251;29;20098;-71
2022/03/29 06:02:08;;;;;;;31.63;11.57;;;;;;;5.45;82.49;100786.84;5954891;29;20079;-70
2022/03/29 06:05:04;;;;;;;28.80;11.50;;;;;;;5.49;82.29;100783.84;5953194;29;20087;-70
2022/03/29 06:07:59;;;;;;;27.42;10.30;;;;;;;5.61;82.01;100793.50;5956105;29;20196;-70
2022/03/29 06:10:55;;;;;;;29.33;10.60;;;;;;;5.66;80.82;100796.63;5951447;29;20075;-70
2022/03/29 06:13:50;;;;;;;31.00;11.10;;;;;;;5.57;81.84;100793.84;5946480;29;20075;-69
2022/03/29 06:16:45;;;;;;;29.60;10.70;;;;;;;5.57;81.60;100801.72;5954994;29;20040;-69
2022/03/29 06:19:41;;;;;;;33.17;10.40;;;;;;;5.65;82.05;100791.50;5958252;29;20043;-70
2022/03/29 06:22:40;;;;;;;31.98;11.35;;;;;;;5.59;81.04;100790.16;5950041;29;20051;-69
2022/03/29 06:25:36;;;;;;;31.92;11.20;;;;;;;5.51;82.17;100797.75;5955045;29;20051;-70
2022/03/29 06:28:31;;;;;;;32.50;11.00;;;;;;;5.47;82.31;100800.69;5953004;29;20048;-69
2022/03/29 06:31:27;;;;;;;32.13;11.77;;;;;;;5.46;82.21;100799.03;5954879;29;20043;-70
2022/03/29 06:34:22;;;;;;;36.17;11.95;;;;;;;5.43;81.66;100805.38;5963790;29;20051;-69
2022/03/29 06:37:18;;;;;;;32.03;12.83;;;;;;;5.51;81.92;100808.28;5962606;29;20039;-70
2022/03/29 06:40:14;;;;;;;31.80;11.07;;;;;;;5.49;82.42;100804.91;5980669;29;20061;-70
2022/03/29 06:43:09;;;;;;;33.67;12.50;;;;;;;5.55;82.01;100808.88;5971428;29;20059;-69
2022/03/29 06:46:07;;;;;;;31.58;12.07;;;;;;;5.60;81.98;100806.78;5958238;29;20053;-69
2022/03/29 06:49:03;;;;;;;34.92;11.63;;;;;;;5.69;81.03;100799.03;5957686;29;20039;-68
2022/03/29 06:51:58;;;;;;;29.40;11.18;;;;;;;5.71;80.46;100805.00;5976197;29;20031;-71
2022/03/29 06:54:54;;;;;;;31.63;11.50;;;;;;;5.71;80.64;100805.00;5958461;29;20040;-69
2022/03/29 06:57:49;;;;;;;33.15;12.00;;;;;;;5.67;80.83;100808.84;5957596;29;20094;-71
2022/03/29 07:00:44;;;;;;;26.93;10.93;;;;;;;5.68;80.80;100809.69;5955470;29;20575;-69
2022/03/29 07:03:40;;;;;;;32.25;11.02;;;;;;;5.75;80.95;100801.22;5950529;29;20128;-69
2022/03/29 07:06:35;;;;;;;32.53;11.77;;;;;;;5.78;80.03;100803.63;5950851;29;20031;-69
2022/03/29 07:12:53;;;;;;;34.83;11.95;;;;;;;5.79;80.51;100810.56;5953817;29;20063;-71
2022/03/29 07:15:49;;;;;;;35.40;11.95;;;;;;;5.72;79.95;100801.44;5957597;29;20039;-70
2022/03/29 07:18:44;;;;;;;36.10;11.90;;;;;;;5.76;79.63;100796.81;5945224;29;20036;-70
2022/03/29 07:21:39;;;;;;;35.10;11.00;;;;;;;5.76;79.29;100797.63;5952080;29;20032;-71
2022/03/29 07:24:35;;;;;;;28.67;11.60;;;;;;;5.76;79.21;100797.63;5954283;29;20040;-70
2022/03/29 07:27:30;;;;;;;31.30;12.53;;;;;;;5.82;78.64;100812.13;5953676;29;20050;-72
2022/03/29 07:30:27;;;;;;;33.35;12.48;;;;;;;5.84;79.30;100797.06;5954503;29;20495;-71
2022/03/29 07:33:22;;;;;;;34.65;12.95;;;;;;;5.85;78.52;100790.88;5959233;29;20040;-68
2022/03/29 07:36:18;;;;;;;35.33;13.30;;;;;;;5.97;77.83;100790.81;5949180;29;20039;-71
2022/03/29 07:39:14;;;;;;;35.53;12.77;;;;;;;5.90;77.17;100789.56;5951777;29;20050;-71
2022/03/29 07:42:10;;;;;;;33.85;12.68;;;;;;;5.96;78.06;100788.28;5951383;29;20069;-70
2022/03/29 07:45:06;;;;;;;33.93;11.80;;;;;;;6.03;77.51;100793.94;5979791;29;20030;-69
2022/03/29 07:48:03;;;;;;;40.33;13.18;;;;;;;6.10;77.65;100784.63;5952961;29;20484;-72
2022/03/29 07:50:58;;;;;;;32.60;12.35;;;;;;;6.18;77.30;100787.50;5967686;29;20123;-70
2022/03/29 07:53:54;;;;;;;32.00;11.70;;;;;;;6.20;77.01;100785.59;5979785;29;20034;-71
2022/03/29 07:56:49;;;;;;;35.92;12.43;;;;;;;6.18;77.01;100777.81;5961049;29;20038;-70
2022/03/29 07:59:44;;;;;;;36.47;12.83;;;;;;;6.11;76.81;100784.50;5955263;29;20035;-72
2022/03/29 08:02:40;;;;;;;36.08;12.75;;;;;;;6.14;76.82;100781.66;5945634;29;20071;-72
2022/03/29 08:05:36;;;;;;;33.83;12.83;;;;;;;6.07;76.33;100779.56;5965158;29;20051;-71
2022/03/29 08:08:32;;;;;;;35.38;12.18;;;;;;;6.18;77.15;100777.81;5961817;29;20502;-71
2022/03/29 08:11:29;;;;;;;39.45;13.27;;;;;;;6.17;76.72;100777.94;5961351;29;20035;-69
2022/03/29 08:14:27;;;;;;;35.63;12.85;;;;;;;6.14;76.50;100768.50;5971221;29;20114;-70
2022/03/29 08:17:22;;;;;;;35.60;13.15;;;;;;;6.19;76.58;100773.41;5949340;29;20570;-69
2022/03/29 08:20:18;;;;;;;35.13;12.03;;;;;;;6.22;76.31;100766.13;5963914;29;20039;-70
2022/03/29 08:23:13;;;;;;;36.90;12.27;;;;;;;6.28;75.88;100762.13;5954515;29;20038;-70
2022/03/29 08:26:09;;;;;;;29.33;12.00;;;;;;;6.31;75.58;100762.75;5969272;29;20075;-70
2022/03/29 08:29:04;;;;;;;35.67;13.50;;;;;;;6.35;74.78;100758.09;5969719;29;20031;-69
2022/03/29 08:31:59;;;;;;;35.90;12.77;;;;;;;6.36;75.11;100759.78;5943220;29;20118;-70
2022/03/29 08:34:54;;;;;;;39.43;13.73;;;;;;;6.52;74.90;100757.66;5965378;29;20675;-71
2022/03/29 08:37:50;;;;;;;33.43;11.77;;;;;;;6.51;74.93;100758.59;5944412;29;20047;-70
2022/03/29 08:40:46;;;;;;;38.00;12.63;;;;;;;6.51;74.05;100748.06;5950351;29;20109;-70
2022/03/29 08:43:42;;;;;;;35.10;12.20;;;;;;;6.56;73.51;100762.56;5957119;29;20082;-70
2022/03/29 08:46:41;;;;;;;31.63;12.07;;;;;;;6.59;73.89;100756.19;5948244;29;20039;-71
2022/03/29 08:49:37;;;;;;;35.60;12.65;;;;;;;6.57;73.96;100752.84;5979152;29;20035;-70
2022/03/29 08:52:32;;;;;;;31.33;11.68;;;;;;;6.57;73.58;100748.44;5961186;29;20406;-69
2022/03/29 08:55:27;;;;;;;35.47;12.33;;;;;;;6.81;74.42;100756.19;5975166;29;20039;-69
2022/03/29 08:58:24;;;;;;;38.85;12.05;;;;;;;6.85;73.79;100746.25;5954199;29;20063;-70
2022/03/29 09:01:20;;;;;;;33.78;12.65;;;;;;;6.79;72.78;100742.31;5958994;29;20123;-69
2022/03/29 09:04:20;;;;;;;35.70;11.93;;;;;;;6.90;73.72;100741.47;5961220;29;20125;-70
2022/03/29 09:07:16;;;;;;;36.33;13.35;;;;;;;7.02;71.98;100738.66;5963852;29;20042;-70
2022/03/29 09:10:12;;;;;;;40.23;12.73;;;;;;;7.01;72.69;100742.25;5957237;29;20035;-68
2022/03/29 09:13:22;;;;;;;31.65;11.88;;;;;;;6.98;73.11;100731.97;5955560;29;20036;-70
2022/03/29 09:16:29;;;;;;;30.70;12.48;;;;;;;7.16;73.36;100737.56;5958425;29;20031;-69
2022/03/29 09:19:25;;;;;;;;;;;;;;;7.10;72.17;100733.63;5955587;29;20036;-70
2022/03/29 09:22:34;;;;;;;30.25;12.57;;;;;;;7.17;72.05;100732.16;5954434;29;19915;-71
2022/03/29 09:25:38;;;;;;;33.78;12.85;;;;;;;7.35;70.84;100723.72;5951385;29;20044;-71
2022/03/29 09:28:35;;;;;;;33.70;12.23;;;;;;;7.46;69.96;100732.44;5946943;29;20399;-69
2022/03/29 09:31:31;;;;;;;34.50;13.25;;;;;;;7.56;69.60;100730.72;5953564;29;20126;-70
2022/03/29 09:34:28;;;;;;;37.57;11.93;;;;;;;7.35;68.98;100724.56;5967230;29;20046;-70
2022/03/29 09:37:33;;;;;;;29.65;12.13;;;;;;;7.54;69.91;100726.53;5947110;29;20118;-70
2022/03/29 09:40:43;;;;;;;31.15;12.95;;;;;;;7.69;69.33;100727.91;5965858;29;20043;-71
2022/03/29 09:43:38;;;;;;;36.45;12.23;;;;;;;7.64;69.32;100725.63;5951867;29;20466;-70
2022/03/29 09:46:56;;;;;;;30.27;11.57;;;;;;;7.60;69.61;100724.22;5945952;29;20039;-71
2022/03/29 09:50:01;;;;;;;33.45;11.68;;;;;;;7.58;69.24;100720.06;5967391;29;20447;-70
2022/03/29 09:52:56;;;;;;;29.73;11.68;;;;;;;7.65;69.84;100715.94;5966665;29;20067;-69
2022/03/29 09:55:59;;;;;;;31.07;10.83;;;;;;;7.85;68.69;100712.47;5943915;29;20052;-71
2022/03/29 09:59:05;;;;;;;34.08;12.45;;;;;;;7.82;68.92;100706.59;5957088;29;20106;-71
2022/03/29 10:02:00;;;;;;;36.40;11.65;;;;;;;8.13;67.66;100705.66;5950961;29;20039;-70
2022/03/29 10:04:56;;;;;;;29.98;11.23;;;;;;;8.15;67.48;100712.50;5954145;29;20040;-71
2022/03/29 10:09:25;;;;;;;33.03;11.73;;;;;;;8.21;68.10;100700.56;5946297;29;20043;-71
2022/03/29 10:11:14;;;;;;;31.40;12.02;;;;;;;8.30;67.71;100702.47;5955708;29;20089;-70
2022/03/29 10:14:12;;;;;;;31.67;12.05;;;;;;;8.12;67.56;100704.88;5955106;29;20380;-70
2022/03/29 10:17:08;;;;;;;30.77;12.35;;;;;;;8.43;67.24;100702.25;5974306;29;20039;-68
2022/03/29 10:20:06;;;;;;;31.00;12.02;;;;;;;8.72;66.25;100703.22;5953655;29;20497;-70
2022/03/29 10:23:02;;;;;;;31.83;11.35;;;;;;;9.09;65.03;100695.47;5961991;29;20043;-71
2022/03/29 10:25:58;;;;;;;29.73;11.50;;;;;;;9.17;64.81;100693.84;5964559;29;20066;-70
2022/03/29 10:28:53;;;;;;;30.10;12.25;;;;;;;9.23;64.73;100698.59;5940346;29;20076;-70
2022/03/29 10:31:51;;;;;;;31.42;12.18;;;;;;;9.03;63.60;100701.31;5948369;29;20035;-71
2022/03/29 10:35:02;;;;;;;31.00;12.20;;;;;;;8.87;64.57;100688.63;5948595;29;20039;-71
2022/03/29 10:37:59;;;;;;;31.75;12.60;;;;;;;8.94;64.20;100687.13;5950269;29;20064;-71
2022/03/29 10:40:55;;;;;;;32.95;12.52;;;;;;;8.82;64.16;100682.91;5953856;29;20067;-69
2022/03/29 10:43:54;;;;;;;38.57;12.50;;;;;;;8.98;63.78;100668.19;5945966;29;20043;-71
2022/03/29 10:46:51;;;;;;;30.77;12.15;;;;;;;9.02;63.74;100666.13;5954157;29;20046;-71
2022/03/29 10:49:50;;;;;;;28.85;12.15;;;;;;;9.51;63.55;100644.78;5955872;29;20032;-70
2022/03/29 10:52:47;;;;;;;37.03;13.45;;;;;;;9.87;61.80;100658.25;5948869;29;20067;-71
2022/03/29 10:55:43;;;;;;;29.45;11.68;;;;;;;9.89;60.53;100654.47;5954992;29;20547;-69
2022/03/29 10:59:03;;;;;;;28.80;12.27;;;;;;;9.71;60.14;100655.38;5959734;29;20040;-70
2022/03/29 11:02:12;;;;;;;28.20;12.10;;;;;;;9.87;60.97;100655.59;5921972;29;20032;-70
2022/03/29 11:05:10;;;;;;;28.38;12.20;;;;;;;9.91;60.89;100646.41;5968335;29;20130;-69
2022/03/29 11:08:09;;;;;;;30.25;12.05;;;;;;;10.01;60.20;100641.91;5981089;28;20090;-71
2022/03/29 11:11:06;;;;;;;30.73;12.32;;;;;;;10.03;60.04;100639.94;5983381;28;20030;-70
2022/03/29 11:14:33;;;;;;;32.60;13.55;;;;;;;9.98;60.33;100643.03;6003605;28;20034;-69
2022/03/29 11:17:30;;;;;;;28.80;11.20;;;;;;;10.39;59.83;100625.91;5986356;28;20063;-70
2022/03/29 11:20:31;;;;;;;34.22;12.10;;;;;;;10.31;59.32;100625.81;5975699;28;20102;-71
2022/03/29 11:23:34;;;;;;;33.17;12.15;;;;;;;10.23;58.95;100622.22;5980584;29;20108;-70
2022/03/29 11:26:30;;;;;;;29.50;12.57;;;;;;;10.16;59.05;100624.63;5977612;29;20489;-71
2022/03/29 11:29:25;;;;;;;26.48;11.02;;;;;;;10.84;58.59;100610.03;5980150;29;20035;-70
2022/03/29 11:32:21;;;;;;;25.47;11.47;;;;;;;11.45;56.75;100610.06;5974008;29;20030;-70
2022/03/29 11:35:19;;;;;;;28.17;11.90;;;;;;;10.83;56.50;100615.47;5980575;28;20279;-71
2022/03/29 11:38:16;;;;;;;31.70;12.30;;;;;;;11.26;56.82;100599.63;5991009;28;20035;-71
2022/03/29 11:41:25;;;;;;;26.88;11.43;;;;;;;11.50;54.90;100596.31;5978476;29;20062;-69
2022/03/29 11:44:22;;;;;;;29.15;11.65;;;;;;;11.02;56.01;100599.41;5985210;28;20039;-72
2022/03/29 11:47:18;;;;;;;24.77;11.13;;;;;;;10.96;56.03;100586.72;5981280;28;20034;-71
2022/03/29 11:50:13;;;;;;;24.52;11.23;;;;;;;10.88;56.82;100582.19;5979170;29;20519;-69
2022/03/29 11:53:31;;;;;;;32.77;12.63;;;;;;;10.73;56.44;100587.16;5979700;29;20066;-70
2022/03/29 11:56:27;;;;;;;30.55;11.25;;;;;;;10.45;56.79;100577.59;5977441;28;20031;-71
2022/03/29 11:59:22;;;;;;;33.55;12.40;;;;;;;10.51;58.10;100577.00;5979859;28;20054;-70
2022/03/29 12:02:18;;;;;;;27.90;11.57;;;;;;;10.73;57.26;100570.44;5961420;29;20054;-69
2022/03/29 12:05:26;;;;;;;31.77;11.82;;;;;;;11.26;54.81;100567.75;5977364;29;20386;-70
2022/03/29 12:08:21;;;;;;;31.58;11.82;;;;;;;11.53;54.67;100557.00;5992123;28;20086;-70
2022/03/29 12:11:18;;;;;;;28.13;12.17;;;;;;;11.79;53.50;100557.88;5983325;28;20471;-70
2022/03/29 12:14:16;;;;;;;30.45;11.30;;;;;;;11.05;54.57;100554.81;5979886;28;20506;-71
2022/03/29 12:17:12;;;;;;;26.42;11.70;;;;;;;11.39;54.26;100546.13;5966891;28;20421;-71
2022/03/29 12:20:08;;;;;;;31.60;12.70;;;;;;;11.51;53.73;100536.91;5995525;28;20035;-71
2022/03/29 12:23:17;;;;;;;30.35;12.50;;;;;;;11.35;54.78;100542.94;5979047;29;20047;-71
2022/03/29 12:26:14;;;;;;;38.83;12.80;;;;;;;11.65;53.75;100531.03;5978796;29;20082;-70
2022/03/29 12:29:12;;;;;;;36.75;13.20;;;;;;;11.89;53.76;100524.06;5974607;29;20042;-69
2022/03/29 12:32:08;;;;;;;27.95;12.15;;;;;;;11.93;52.48;100530.69;5958653;28;20450;-70
2022/03/29 12:35:05;;;;;;;30.27;13.05;;;;;;;11.93;52.50;100522.72;5979837;28;20035;-71
2022/03/29 12:38:05;;;;;;;32.08;12.68;;;;;;;12.07;51.12;100520.44;5989359;28;20031;-70
2022/03/29 12:41:08;;;;;;;27.33;11.80;;;;;;;11.85;51.89;100509.41;5996817;28;20039;-71
2022/03/29 12:44:11;;;;;;;30.23;13.57;;;;;;;11.43;53.32;100516.47;5987062;28;20030;-71
2022/03/29 12:47:06;;;;;;;32.50;12.25;;;;;;;11.06;53.87;100515.88;5979043;28;20080;-71
2022/03/29 12:50:03;;;;;;;28.35;12.00;;;;;;;11.03;54.88;100503.75;6001430;28;20038;-69
2022/03/29 12:53:03;;;;;;;32.90;11.88;;;;;;;11.23;53.84;100493.75;5981710;28;20053;-70
2022/03/29 12:55:59;;;;;;;29.67;12.27;;;;;;;11.61;53.08;100493.31;5979798;28;20062;-69
2022/03/29 12:58:55;;;;;;;29.30;12.45;;;;;;;12.10;52.31;100483.75;5988688;28;20502;-70
2022/03/29 13:01:50;;;;;;;29.63;11.88;;;;;;;12.12;51.49;100480.97;5988296;28;20039;-71
2022/03/29 13:04:53;;;;;;;34.43;13.37;;;;;;;12.14;52.20;100481.63;5974396;28;20114;-70
2022/03/29 13:07:59;;;;;;;26.88;11.57;;;;;;;12.41;51.44;100476.03;5985743;28;20282;-71
2022/03/29 13:10:54;;;;;;;33.17;13.50;;;;;;;12.24;52.62;100474.31;5984080;28;20036;-68
2022/03/29 13:14:07;;;;;;;30.92;12.38;;;;;;;12.49;50.44;100462.75;5984675;28;20047;-68
2022/03/29 13:17:02;;;;;;;30.80;12.98;;;;;;;12.63;49.57;100454.13;5964655;28;20035;-72
2022/03/29 13:19:57;;;;;;;28.07;11.23;;;;;;;12.01;51.06;100457.34;5968147;28;20061;-69
2022/03/29 13:22:53;;;;;;;28.10;11.50;;;;;;;11.76;52.07;100446.63;5981123;29;20270;-72
2022/03/29 13:25:48;;;;;;;29.83;12.68;;;;;;;12.03;51.30;100442.88;5983477;28;20030;-68
2022/03/29 13:28:44;;;;;;;26.73;10.80;;;;;;;12.73;50.46;100437.97;5979043;28;20090;-69
2022/03/29 13:31:41;;;;;;;28.55;12.05;;;;;;;12.92;48.39;100442.97;5981473;28;20027;-68
2022/03/29 13:34:36;;;;;;;23.58;10.80;;;;;;;11.96;49.43;100430.41;5988424;28;20386;-68
2022/03/29 13:37:32;;;;;;;23.83;10.38;;;;;;;12.23;49.62;100438.13;5983629;28;20066;-71
2022/03/29 13:40:28;;;;;;;23.17;9.63;;;;;;;12.67;49.13;100439.47;6005044;28;20042;-71